sensor_id;sensor_type;location;lat;lon;timestamp;pressure;altitude;pressure_sealevel;temperature;humidity
34658;BME280;20865;43.312;27.152;2023-04-12T00:00:07;99120.02;;;15.45;55.41
34658;BME280;20865;43.312;27.152;2023-04-12T00:02:35;99123.16;;;15.52;55.14
34658;BME280;20865;43.312;27.152;2023-04-12T00:05:02;99126.39;;;15.37;55.19
34658;BME280;20865;43.312;27.152;2023-04-12T00:07:29;99123.41;;;15.42;54.80
34658;BME280;20865;43.312;27.152;2023-04-12T00:09:57;99120.77;;;15.47;54.96
34658;BME280;20865;43.312;27.152;2023-04-12T00:12:24;99124.64;;;15.43;54.78
34658;BME280;20865;43.312;27.152;2023-04-12T00:14:51;99120.77;;;15.47;55.01
34658;BME280;20865;43.312;27.152;2023-04-12T00:17:18;99120.42;;;15.59;54.63
34658;BME280;20865;43.312;27.152;2023-04-12T00:19:45;99113.08;;;15.61;54.60
34658;BME280;20865;43.312;27.152;2023-04-12T00:22:14;99118.47;;;15.61;54.47
34658;BME280;20865;43.312;27.152;2023-04-12T00:24:41;99108.16;;;15.48;54.46
34658;BME280;20865;43.312;27.152;2023-04-12T00:27:08;99108.23;;;15.54;54.56
34658;BME280;20865;43.312;27.152;2023-04-12T00:29:35;99103.63;;;15.56;54.27
34658;BME280;20865;43.312;27.152;2023-04-12T00:32:02;99105.60;;;15.66;54.18
34658;BME280;20865;43.312;27.152;2023-04-12T00:34:30;99108.08;;;15.69;54.12
34658;BME280;20865;43.312;27.152;2023-04-12T00:36:57;99108.97;;;15.76;54.02
34658;BME280;20865;43.312;27.152;2023-04-12T00:39:24;99112.86;;;15.71;53.87
34658;BME280;20865;43.312;27.152;2023-04-12T00:41:52;99103.06;;;15.70;53.89
34658;BME280;20865;43.312;27.152;2023-04-12T00:44:20;99101.66;;;15.78;53.67
34658;BME280;20865;43.312;27.152;2023-04-12T00:46:47;99102.23;;;15.63;53.95
34658;BME280;20865;43.312;27.152;2023-04-12T00:49:14;99109.39;;;15.37;54.52
34658;BME280;20865;43.312;27.152;2023-04-12T00:51:41;99106.21;;;15.37;54.33
34658;BME280;20865;43.312;27.152;2023-04-12T00:54:08;99104.09;;;15.42;54.73
34658;BME280;20865;43.312;27.152;2023-04-12T00:56:35;99105.40;;;15.30;54.77
34658;BME280;20865;43.312;27.152;2023-04-12T00:59:05;99110.50;;;15.27;54.96
34658;BME280;20865;43.312;27.152;2023-04-12T01:01:32;99108.98;;;15.23;54.77
34658;BME280;20865;43.312;27.152;2023-04-12T01:03:59;99110.94;;;15.21;55.04
34658;BME280;20865;43.312;27.152;2023-04-12T01:06:32;99112.69;;;15.35;54.54
34658;BME280;20865;43.312;27.152;2023-04-12T01:11:28;99099.77;;;15.40;54.43
34658;BME280;20865;43.312;27.152;2023-04-12T01:13:58;99097.45;;;15.41;54.31
34658;BME280;20865;43.312;27.152;2023-04-12T01:16:27;99098.14;;;15.37;54.41
34658;BME280;20865;43.312;27.152;2023-04-12T01:18:53;99092.80;;;15.30;54.60
34658;BME280;20865;43.312;27.152;2023-04-12T01:22:01;99088.72;;;15.24;54.63
34658;BME280;20865;43.312;27.152;2023-04-12T01:26:46;99100.02;;;15.30;54.71
34658;BME280;20865;43.312;27.152;2023-04-12T01:29:17;99090.59;;;15.17;54.88
34658;BME280;20865;43.312;27.152;2023-04-12T01:31:50;99085.70;;;15.29;54.79
34658;BME280;20865;43.312;27.152;2023-04-12T01:34:19;99085.53;;;15.45;54.52
34658;BME280;20865;43.312;27.152;2023-04-12T01:36:48;99085.87;;;15.20;54.97
34658;BME280;20865;43.312;27.152;2023-04-12T01:39:17;99087.71;;;15.13;55.29
34658;BME280;20865;43.312;27.152;2023-04-12T01:41:44;99080.53;;;15.26;55.36
34658;BME280;20865;43.312;27.152;2023-04-12T01:44:13;99089.70;;;15.36;54.98
34658;BME280;20865;43.312;27.152;2023-04-12T01:46:42;99086.77;;;15.27;55.17
34658;BME280;20865;43.312;27.152;2023-04-12T01:49:09;99097.66;;;15.25;55.21
34658;BME280;20865;43.312;27.152;2023-04-12T01:51:43;99093.45;;;15.34;55.08
34658;BME280;20865;43.312;27.152;2023-04-12T01:54:12;99093.09;;;15.33;55.32
34658;BME280;20865;43.312;27.152;2023-04-12T01:56:40;99086.28;;;15.27;55.44
34658;BME280;20865;43.312;27.152;2023-04-12T01:59:07;99082.94;;;15.31;55.28
34658;BME280;20865;43.312;27.152;2023-04-12T02:01:35;99088.68;;;15.44;55.08
34658;BME280;20865;43.312;27.152;2023-04-12T02:04:02;99088.66;;;15.52;55.13
34658;BME280;20865;43.312;27.152;2023-04-12T02:06:31;99091.81;;;15.51;54.96
34658;BME280;20865;43.312;27.152;2023-04-12T02:08:59;99082.34;;;15.58;54.75
34658;BME280;20865;43.312;27.152;2023-04-12T02:11:27;99081.92;;;15.64;54.57
34658;BME280;20865;43.312;27.152;2023-04-12T02:13:54;99075.38;;;15.68;54.62
34658;BME280;20865;43.312;27.152;2023-04-12T02:16:21;99075.45;;;15.74;54.34
34658;BME280;20865;43.312;27.152;2023-04-12T02:18:48;99079.36;;;15.76;54.19
34658;BME280;20865;43.312;27.152;2023-04-12T02:21:15;99083.58;;;15.67;54.35
34658;BME280;20865;43.312;27.152;2023-04-12T02:23:42;99080.55;;;15.71;54.17
34658;BME280;20865;43.312;27.152;2023-04-12T02:26:09;99070.39;;;15.69;54.11
34658;BME280;20865;43.312;27.152;2023-04-12T02:28:37;99074.80;;;15.70;54.11
34658;BME280;20865;43.312;27.152;2023-04-12T02:31:04;99075.23;;;15.77;53.73
34658;BME280;20865;43.312;27.152;2023-04-12T02:33:32;99078.38;;;15.89;53.63
34658;BME280;20865;43.312;27.152;2023-04-12T02:35:59;99075.05;;;15.86;53.60
34658;BME280;20865;43.312;27.152;2023-04-12T02:38:28;99079.48;;;15.87;53.45
34658;BME280;20865;43.312;27.152;2023-04-12T02:40:54;99074.53;;;15.93;53.31
34658;BME280;20865;43.312;27.152;2023-04-12T02:43:21;99072.02;;;16.03;53.06
34658;BME280;20865;43.312;27.152;2023-04-12T02:45:48;99080.22;;;16.02;53.06
34658;BME280;20865;43.312;27.152;2023-04-12T02:48:15;99078.02;;;15.88;53.20
34658;BME280;20865;43.312;27.152;2023-04-12T02:50:42;99076.45;;;16.04;53.01
34658;BME280;20865;43.312;27.152;2023-04-12T02:53:08;99066.11;;;15.98;53.07
34658;BME280;20865;43.312;27.152;2023-04-12T02:55:36;99066.69;;;15.96;53.24
34658;BME280;20865;43.312;27.152;2023-04-12T02:58:03;99064.57;;;16.07;53.04
34658;BME280;20865;43.312;27.152;2023-04-12T03:00:30;99071.21;;;16.08;52.81
34658;BME280;20865;43.312;27.152;2023-04-12T03:02:58;99058.38;;;16.12;52.50
34658;BME280;20865;43.312;27.152;2023-04-12T03:05:26;99062.79;;;16.13;52.45
34658;BME280;20865;43.312;27.152;2023-04-12T03:07:52;99069.73;;;16.10;52.61
34658;BME280;20865;43.312;27.152;2023-04-12T03:10:19;99072.94;;;15.96;53.12
34658;BME280;20865;43.312;27.152;2023-04-12T03:12:46;99076.45;;;16.04;52.73
34658;BME280;20865;43.312;27.152;2023-04-12T03:15:13;99071.52;;;16.04;52.48
34658;BME280;20865;43.312;27.152;2023-04-12T03:17:40;99076.95;;;16.22;52.04
34658;BME280;20865;43.312;27.152;2023-04-12T03:20:07;99072.44;;;16.10;52.31
34658;BME280;20865;43.312;27.152;2023-04-12T03:22:35;99075.62;;;15.96;52.57
34658;BME280;20865;43.312;27.152;2023-04-12T03:25:03;99073.00;;;15.89;52.62
34658;BME280;20865;43.312;27.152;2023-04-12T03:27:30;99073.48;;;15.89;52.76
34658;BME280;20865;43.312;27.152;2023-04-12T03:29:57;99076.18;;;15.89;52.62
34658;BME280;20865;43.312;27.152;2023-04-12T03:32:24;99078.99;;;15.75;52.81
34658;BME280;20865;43.312;27.152;2023-04-12T03:34:51;99086.58;;;15.88;52.71
34658;BME280;20865;43.312;27.152;2023-04-12T03:37:17;99081.96;;;15.77;53.07
34658;BME280;20865;43.312;27.152;2023-04-12T03:39:44;99087.44;;;15.76;52.96
34658;BME280;20865;43.312;27.152;2023-04-12T03:42:12;99084.80;;;15.68;53.36
34658;BME280;20865;43.312;27.152;2023-04-12T03:44:40;99086.33;;;15.73;53.22
34658;BME280;20865;43.312;27.152;2023-04-12T03:47:07;99084.75;;;15.76;53.13
34658;BME280;20865;43.312;27.152;2023-04-12T03:49:34;99093.92;;;15.73;53.20
34658;BME280;20865;43.312;27.152;2023-04-12T03:52:03;99096.00;;;15.75;53.13
34658;BME280;20865;43.312;27.152;2023-04-12T03:56:57;99101.17;;;15.78;53.12
34658;BME280;20865;43.312;27.152;2023-04-12T03:59:24;99107.77;;;15.87;53.05
34658;BME280;20865;43.312;27.152;2023-04-12T04:01:50;99105.22;;;15.91;52.89
34658;BME280;20865;43.312;27.152;2023-04-12T04:04:17;99106.28;;;15.76;53.20
34658;BME280;20865;43.312;27.152;2023-04-12T04:06:45;99110.45;;;15.87;52.99
34658;BME280;20865;43.312;27.152;2023-04-12T04:09:13;99100.54;;;15.87;53.13
34658;BME280;20865;43.312;27.152;2023-04-12T04:11:40;99104.52;;;15.94;53.01
34658;BME280;20865;43.312;27.152;2023-04-12T04:14:07;99107.85;;;15.98;53.02
34658;BME280;20865;43.312;27.152;2023-04-12T04:16:34;99103.33;;;15.99;52.93
34658;BME280;20865;43.312;27.152;2023-04-12T04:19:01;99106.11;;;16.10;52.82
34658;BME280;20865;43.312;27.152;2023-04-12T04:21:27;99107.52;;;16.03;53.05
34658;BME280;20865;43.312;27.152;2023-04-12T04:24:00;99108.44;;;16.09;52.82
34658;BME280;20865;43.312;27.152;2023-04-12T04:26:27;99107.95;;;15.96;52.93
34658;BME280;20865;43.312;27.152;2023-04-12T04:29:00;99114.03;;;15.93;53.08
34658;BME280;20865;43.312;27.152;2023-04-12T04:31:30;99114.44;;;15.94;53.01
34658;BME280;20865;43.312;27.152;2023-04-12T04:34:04;99117.34;;;15.91;53.14
34658;BME280;20865;43.312;27.152;2023-04-12T04:36:36;99124.44;;;15.92;53.17
34658;BME280;20865;43.312;27.152;2023-04-12T04:39:00;99123.86;;;15.94;53.00
34658;BME280;20865;43.312;27.152;2023-04-12T04:41:28;99127.90;;;15.94;53.09
34658;BME280;20865;43.312;27.152;2023-04-12T04:43:58;99129.43;;;16.04;52.91
34658;BME280;20865;43.312;27.152;2023-04-12T04:46:25;99127.72;;;16.03;52.91
34658;BME280;20865;43.312;27.152;2023-04-12T04:48:53;99131.91;;;16.07;52.93
34658;BME280;20865;43.312;27.152;2023-04-12T04:51:20;99144.25;;;16.04;52.94
34658;BME280;20865;43.312;27.152;2023-04-12T04:53:47;99135.92;;;16.01;53.06
34658;BME280;20865;43.312;27.152;2023-04-12T04:56:14;99131.60;;;15.99;53.16
34658;BME280;20865;43.312;27.152;2023-04-12T04:58:41;99139.13;;;16.06;53.08
34658;BME280;20865;43.312;27.152;2023-04-12T05:01:07;99138.77;;;16.05;53.27
34658;BME280;20865;43.312;27.152;2023-04-12T05:03:36;99133.45;;;16.11;53.25
34658;BME280;20865;43.312;27.152;2023-04-12T05:06:04;99140.70;;;16.16;53.21
34658;BME280;20865;43.312;27.152;2023-04-12T05:08:31;99136.99;;;16.11;53.21
34658;BME280;20865;43.312;27.152;2023-04-12T05:10:59;99138.92;;;16.22;53.11
34658;BME280;20865;43.312;27.152;2023-04-12T05:13:26;99138.92;;;16.22;53.13
34658;BME280;20865;43.312;27.152;2023-04-12T05:15:52;99142.56;;;16.21;52.99
34658;BME280;20865;43.312;27.152;2023-04-12T05:18:19;99138.64;;;16.07;53.17
34658;BME280;20865;43.312;27.152;2023-04-12T05:20:46;99148.25;;;15.73;54.10
34658;BME280;20865;43.312;27.152;2023-04-12T05:23:13;99147.80;;;15.79;54.02
34658;BME280;20865;43.312;27.152;2023-04-12T05:25:48;99139.28;;;15.72;54.33
34658;BME280;20865;43.312;27.152;2023-04-12T05:28:13;99145.11;;;15.79;54.18
34658;BME280;20865;43.312;27.152;2023-04-12T05:30:42;99138.98;;;15.77;54.32
34658;BME280;20865;43.312;27.152;2023-04-12T05:33:09;99138.38;;;15.79;54.07
34658;BME280;20865;43.312;27.152;2023-04-12T05:35:36;99140.23;;;15.91;53.93
34658;BME280;20865;43.312;27.152;2023-04-12T05:38:03;99137.81;;;15.93;54.05
34658;BME280;20865;43.312;27.152;2023-04-12T05:40:30;99140.94;;;15.87;54.25
34658;BME280;20865;43.312;27.152;2023-04-12T05:42:57;99136.50;;;15.99;53.92
34658;BME280;20865;43.312;27.152;2023-04-12T05:45:24;99131.02;;;16.01;53.92
34658;BME280;20865;43.312;27.152;2023-04-12T05:47:51;99134.39;;;16.10;53.80
34658;BME280;20865;43.312;27.152;2023-04-12T05:50:18;99129.80;;;16.17;53.73
34658;BME280;20865;43.312;27.152;2023-04-12T05:52:45;99129.37;;;16.24;53.67
34658;BME280;20865;43.312;27.152;2023-04-12T05:55:13;99128.78;;;16.26;53.63
34658;BME280;20865;43.312;27.152;2023-04-12T05:57:42;99131.63;;;16.30;53.42
34658;BME280;20865;43.312;27.152;2023-04-12T06:00:09;99125.94;;;16.22;53.48
34658;BME280;20865;43.312;27.152;2023-04-12T06:02:40;99121.34;;;16.16;53.37
34658;BME280;20865;43.312;27.152;2023-04-12T06:05:07;99122.24;;;16.04;53.46
34658;BME280;20865;43.312;27.152;2023-04-12T06:07:36;99105.87;;;15.94;53.34
34658;BME280;20865;43.312;27.152;2023-04-12T06:10:04;99122.45;;;15.88;53.67
34658;BME280;20865;43.312;27.152;2023-04-12T06:12:32;99120.06;;;15.96;53.70
34658;BME280;20865;43.312;27.152;2023-04-12T06:14:58;99120.55;;;15.96;53.90
34658;BME280;20865;43.312;27.152;2023-04-12T06:17:26;99122.55;;;16.00;54.05
34658;BME280;20865;43.312;27.152;2023-04-12T06:19:53;99123.46;;;15.93;54.03
34658;BME280;20865;43.312;27.152;2023-04-12T06:22:20;99123.80;;;15.88;53.81
34658;BME280;20865;43.312;27.152;2023-04-12T06:24:47;99125.30;;;16.05;53.56
34658;BME280;20865;43.312;27.152;2023-04-12T06:27:13;99131.14;;;16.17;53.57
34658;BME280;20865;43.312;27.152;2023-04-12T06:29:40;99127.67;;;16.28;53.37
34658;BME280;20865;43.312;27.152;2023-04-12T06:32:07;99128.72;;;16.33;53.41
34658;BME280;20865;43.312;27.152;2023-04-12T06:34:34;99128.73;;;16.38;53.25
34658;BME280;20865;43.312;27.152;2023-04-12T06:37:01;99132.42;;;16.37;53.24
34658;BME280;20865;43.312;27.152;2023-04-12T06:39:28;99135.09;;;16.32;53.40
34658;BME280;20865;43.312;27.152;2023-04-12T06:41:55;99140.91;;;16.26;53.64
34658;BME280;20865;43.312;27.152;2023-04-12T06:44:22;99136.10;;;16.24;53.53
34658;BME280;20865;43.312;27.152;2023-04-12T06:46:50;99144.03;;;16.32;53.35
34658;BME280;20865;43.312;27.152;2023-04-12T06:49:17;99145.31;;;16.27;53.60
34658;BME280;20865;43.312;27.152;2023-04-12T06:51:44;99139.50;;;16.07;54.18
34658;BME280;20865;43.312;27.152;2023-04-12T06:54:11;99138.39;;;15.91;54.23
34658;BME280;20865;43.312;27.152;2023-04-12T06:56:38;99127.28;;;15.96;53.66
34658;BME280;20865;43.312;27.152;2023-04-12T06:59:05;99140.39;;;15.69;54.50
34658;BME280;20865;43.312;27.152;2023-04-12T07:01:33;99141.52;;;15.98;54.03
34658;BME280;20865;43.312;27.152;2023-04-12T07:04:00;99145.31;;;16.14;54.18
34658;BME280;20865;43.312;27.152;2023-04-12T07:06:26;99149.33;;;16.08;54.39
34658;BME280;20865;43.312;27.152;2023-04-12T07:08:53;99141.89;;;15.99;54.68
34658;BME280;20865;43.312;27.152;2023-04-12T07:11:20;99139.99;;;16.07;54.23
34658;BME280;20865;43.312;27.152;2023-04-12T07:13:47;99141.19;;;16.15;54.45
34658;BME280;20865;43.312;27.152;2023-04-12T07:16:15;99142.47;;;16.23;54.03
34658;BME280;20865;43.312;27.152;2023-04-12T07:18:42;99142.20;;;16.20;54.02
34658;BME280;20865;43.312;27.152;2023-04-12T07:21:10;99143.05;;;16.20;54.06
34658;BME280;20865;43.312;27.152;2023-04-12T07:23:39;99143.02;;;16.02;53.93
34658;BME280;20865;43.312;27.152;2023-04-12T07:26:06;99140.91;;;16.13;54.07
34658;BME280;20865;43.312;27.152;2023-04-12T07:28:32;99145.68;;;16.28;53.84
34658;BME280;20865;43.312;27.152;2023-04-12T07:31:03;99153.19;;;16.30;53.72
34658;BME280;20865;43.312;27.152;2023-04-12T07:33:29;99150.77;;;16.32;53.48
34658;BME280;20865;43.312;27.152;2023-04-12T07:35:56;99157.28;;;16.35;53.35
34658;BME280;20865;43.312;27.152;2023-04-12T07:38:25;99153.05;;;16.44;53.49
34658;BME280;20865;43.312;27.152;2023-04-12T07:40:53;99147.16;;;16.57;53.28
34658;BME280;20865;43.312;27.152;2023-04-12T07:43:20;99149.28;;;16.47;53.64
34658;BME280;20865;43.312;27.152;2023-04-12T07:45:56;99147.95;;;16.34;53.59
34658;BME280;20865;43.312;27.152;2023-04-12T07:48:22;99150.08;;;16.41;53.38
34658;BME280;20865;43.312;27.152;2023-04-12T07:50:49;99151.06;;;16.40;53.13
34658;BME280;20865;43.312;27.152;2023-04-12T07:53:17;99151.49;;;15.90;53.48
34658;BME280;20865;43.312;27.152;2023-04-12T07:55:44;99154.19;;;16.34;53.16
34658;BME280;20865;43.312;27.152;2023-04-12T07:58:15;99150.06;;;16.36;53.23
34658;BME280;20865;43.312;27.152;2023-04-12T08:00:46;99145.44;;;16.00;52.78
34658;BME280;20865;43.312;27.152;2023-04-12T08:03:17;99146.39;;;16.24;52.17
34658;BME280;20865;43.312;27.152;2023-04-12T08:05:47;99145.23;;;16.03;52.61
34658;BME280;20865;43.312;27.152;2023-04-12T08:08:18;99149.63;;;16.04;52.34
34658;BME280;20865;43.312;27.152;2023-04-12T08:10:48;99148.37;;;16.28;51.72
34658;BME280;20865;43.312;27.152;2023-04-12T08:13:18;99149.36;;;16.14;52.44
34658;BME280;20865;43.312;27.152;2023-04-12T08:15:46;99135.13;;;15.93;51.72
34658;BME280;20865;43.312;27.152;2023-04-12T08:18:13;99145.34;;;16.01;51.67
34658;BME280;20865;43.312;27.152;2023-04-12T08:20:40;99153.36;;;15.95;52.06
34658;BME280;20865;43.312;27.152;2023-04-12T08:23:11;99151.73;;;15.93;52.53
34658;BME280;20865;43.312;27.152;2023-04-12T08:25:38;99150.83;;;16.12;52.82
34658;BME280;20865;43.312;27.152;2023-04-12T08:28:05;99151.22;;;16.01;52.69
34658;BME280;20865;43.312;27.152;2023-04-12T08:30:35;99147.06;;;16.02;52.62
34658;BME280;20865;43.312;27.152;2023-04-12T08:33:02;99143.14;;;16.01;53.00
34658;BME280;20865;43.312;27.152;2023-04-12T08:35:29;99149.55;;;16.18;53.18
34658;BME280;20865;43.312;27.152;2023-04-12T08:37:56;99154.23;;;16.09;53.81
34658;BME280;20865;43.312;27.152;2023-04-12T08:40:25;99151.34;;;16.43;52.95
34658;BME280;20865;43.312;27.152;2023-04-12T08:42:53;99149.78;;;16.33;52.98
34658;BME280;20865;43.312;27.152;2023-04-12T08:45:21;99159.42;;;16.43;52.61
34658;BME280;20865;43.312;27.152;2023-04-12T08:47:49;99149.51;;;16.31;52.76
34658;BME280;20865;43.312;27.152;2023-04-12T08:50:16;99152.35;;;16.35;52.48
34658;BME280;20865;43.312;27.152;2023-04-12T08:52:44;99153.55;;;16.31;53.04
34658;BME280;20865;43.312;27.152;2023-04-12T08:55:12;99154.55;;;16.48;53.02
34658;BME280;20865;43.312;27.152;2023-04-12T08:57:40;99152.40;;;16.53;52.12
34658;BME280;20865;43.312;27.152;2023-04-12T09:00:07;99149.27;;;16.15;52.37
34658;BME280;20865;43.312;27.152;2023-04-12T09:02:35;99150.43;;;16.24;52.26
34658;BME280;20865;43.312;27.152;2023-04-12T09:05:03;99158.42;;;16.26;52.41
34658;BME280;20865;43.312;27.152;2023-04-12T09:07:30;99153.55;;;16.31;51.82
34658;BME280;20865;43.312;27.152;2023-04-12T09:09:57;99152.39;;;16.22;52.19
34658;BME280;20865;43.312;27.152;2023-04-12T09:12:24;99153.28;;;16.28;51.92
34658;BME280;20865;43.312;27.152;2023-04-12T09:15:11;99152.48;;;16.20;51.90
34658;BME280;20865;43.312;27.152;2023-04-12T09:17:25;99152.81;;;16.29;51.96
34658;BME280;20865;43.312;27.152;2023-04-12T09:19:52;99154.53;;;16.30;52.04
34658;BME280;20865;43.312;27.152;2023-04-12T09:22:38;99154.03;;;16.43;52.09
34658;BME280;20865;43.312;27.152;2023-04-12T09:25:01;99153.81;;;16.46;52.20
34658;BME280;20865;43.312;27.152;2023-04-12T09:27:27;99155.09;;;16.53;51.88
34658;BME280;20865;43.312;27.152;2023-04-12T09:30:07;99152.73;;;16.67;51.76
34658;BME280;20865;43.312;27.152;2023-04-12T09:32:34;99158.15;;;16.73;51.95
34658;BME280;20865;43.312;27.152;2023-04-12T09:35:01;99155.05;;;16.79;52.18
34658;BME280;20865;43.312;27.152;2023-04-12T09:37:29;99151.06;;;16.90;52.11
34658;BME280;20865;43.312;27.152;2023-04-12T09:40:00;99153.39;;;16.89;51.63
34658;BME280;20865;43.312;27.152;2023-04-12T09:42:27;99154.73;;;16.89;51.60
34658;BME280;20865;43.312;27.152;2023-04-12T09:44:55;99149.48;;;16.93;50.92
34658;BME280;20865;43.312;27.152;2023-04-12T09:47:25;99158.59;;;16.79;51.10
34658;BME280;20865;43.312;27.152;2023-04-12T09:49:50;99159.50;;;16.85;51.14
34658;BME280;20865;43.312;27.152;2023-04-12T09:52:17;99158.34;;;16.95;51.29
34658;BME280;20865;43.312;27.152;2023-04-12T09:54:44;99157.39;;;17.02;51.93
34658;BME280;20865;43.312;27.152;2023-04-12T09:57:11;99161.54;;;17.00;51.87
34658;BME280;20865;43.312;27.152;2023-04-12T09:59:39;99157.94;;;16.94;52.11
34658;BME280;20865;43.312;27.152;2023-04-12T10:02:13;99160.55;;;17.01;52.25
34658;BME280;20865;43.312;27.152;2023-04-12T10:04:41;99160.14;;;17.13;52.15
34658;BME280;20865;43.312;27.152;2023-04-12T10:07:08;99168.27;;;16.95;52.52
34658;BME280;20865;43.312;27.152;2023-04-12T10:09:39;99161.77;;;16.97;52.41
34658;BME280;20865;43.312;27.152;2023-04-12T10:12:07;99165.41;;;17.14;52.00
34658;BME280;20865;43.312;27.152;2023-04-12T10:14:34;99165.56;;;16.76;50.67
34658;BME280;20865;43.312;27.152;2023-04-12T10:17:03;99165.24;;;16.81;51.25
34658;BME280;20865;43.312;27.152;2023-04-12T10:19:30;99166.46;;;16.70;50.88
34658;BME280;20865;43.312;27.152;2023-04-12T10:22:00;99166.59;;;16.68;50.56
34658;BME280;20865;43.312;27.152;2023-04-12T10:24:27;99168.20;;;16.71;50.69
34658;BME280;20865;43.312;27.152;2023-04-12T10:26:55;99160.16;;;16.76;50.63
34658;BME280;20865;43.312;27.152;2023-04-12T10:31:52;99164.21;;;16.76;51.14
34658;BME280;20865;43.312;27.152;2023-04-12T10:34:23;99160.34;;;16.67;51.01
34658;BME280;20865;43.312;27.152;2023-04-12T10:36:54;99161.92;;;16.83;50.91
34658;BME280;20865;43.312;27.152;2023-04-12T10:39:45;99157.13;;;16.99;50.29
34658;BME280;20865;43.312;27.152;2023-04-12T10:42:21;99158.03;;;17.05;50.22
34658;BME280;20865;43.312;27.152;2023-04-12T10:44:53;99156.73;;;17.22;50.27
34658;BME280;20865;43.312;27.152;2023-04-12T10:50:20;99161.22;;;17.34;50.44
34658;BME280;20865;43.312;27.152;2023-04-12T10:55:34;99153.30;;;17.44;50.80
34658;BME280;20865;43.312;27.152;2023-04-12T10:58:03;99147.58;;;17.66;50.45
34658;BME280;20865;43.312;27.152;2023-04-12T11:03:14;99161.58;;;17.71;50.26
34658;BME280;20865;43.312;27.152;2023-04-12T11:08:27;99158.70;;;17.85;50.40
34658;BME280;20865;43.312;27.152;2023-04-12T11:10:58;99161.03;;;17.49;50.80
34658;BME280;20865;43.312;27.152;2023-04-12T11:13:26;99164.61;;;17.60;50.90
34658;BME280;20865;43.312;27.152;2023-04-12T11:15:54;99166.85;;;17.67;50.49
34658;BME280;20865;43.312;27.152;2023-04-12T11:18:24;99169.27;;;17.82;50.93
34658;BME280;20865;43.312;27.152;2023-04-12T11:20:51;99173.69;;;17.83;50.21
34658;BME280;20865;43.312;27.152;2023-04-12T11:23:18;99169.29;;;17.94;50.24
34658;BME280;20865;43.312;27.152;2023-04-12T11:25:50;99168.55;;;17.97;50.35
34658;BME280;20865;43.312;27.152;2023-04-12T11:28:18;99166.23;;;18.09;50.03
34658;BME280;20865;43.312;27.152;2023-04-12T11:30:53;99168.44;;;18.04;50.31
34658;BME280;20865;43.312;27.152;2023-04-12T11:33:41;99166.73;;;18.03;50.43
34658;BME280;20865;43.312;27.152;2023-04-12T11:36:05;99164.88;;;18.09;50.44
34658;BME280;20865;43.312;27.152;2023-04-12T11:38:33;99173.20;;;17.95;50.47
34658;BME280;20865;43.312;27.152;2023-04-12T11:41:01;99171.02;;;17.89;50.37
34658;BME280;20865;43.312;27.152;2023-04-12T11:43:28;99164.88;;;17.93;49.53
34658;BME280;20865;43.312;27.152;2023-04-12T11:45:59;99171.14;;;17.93;49.47
34658;BME280;20865;43.312;27.152;2023-04-12T11:48:26;99167.30;;;17.84;49.50
34658;BME280;20865;43.312;27.152;2023-04-12T11:50:53;99165.30;;;17.75;49.37
34658;BME280;20865;43.312;27.152;2023-04-12T11:53:26;99159.31;;;17.89;49.10
34658;BME280;20865;43.312;27.152;2023-04-12T11:55:52;99171.14;;;17.93;50.46
34658;BME280;20865;43.312;27.152;2023-04-12T11:58:22;99172.28;;;17.72;50.11
34658;BME280;20865;43.312;27.152;2023-04-12T12:00:49;99169.77;;;17.82;49.85
34658;BME280;20865;43.312;27.152;2023-04-12T12:03:16;99171.11;;;17.88;50.22
34658;BME280;20865;43.312;27.152;2023-04-12T12:05:43;99163.30;;;18.07;50.10
34658;BME280;20865;43.312;27.152;2023-04-12T12:08:11;99168.09;;;17.74;49.12
34658;BME280;20865;43.312;27.152;2023-04-12T12:10:38;99176.85;;;17.77;50.16
34658;BME280;20865;43.312;27.152;2023-04-12T12:13:08;99173.20;;;17.95;50.08
34658;BME280;20865;43.312;27.152;2023-04-12T12:15:37;99175.12;;;17.47;50.10
34658;BME280;20865;43.312;27.152;2023-04-12T12:18:08;99177.25;;;17.78;49.05
34658;BME280;20865;43.312;27.152;2023-04-12T12:20:37;99175.84;;;17.73;48.86
34658;BME280;20865;43.312;27.152;2023-04-12T12:23:01;99177.24;;;17.84;49.09
34658;BME280;20865;43.312;27.152;2023-04-12T12:25:28;99170.41;;;17.67;48.33
34658;BME280;20865;43.312;27.152;2023-04-12T12:27:58;99178.62;;;17.90;47.98
34658;BME280;20865;43.312;27.152;2023-04-12T12:30:25;99177.27;;;17.90;48.14
34658;BME280;20865;43.312;27.152;2023-04-12T12:32:52;99180.83;;;17.90;48.49
34658;BME280;20865;43.312;27.152;2023-04-12T12:35:19;99185.37;;;17.90;48.74
34658;BME280;20865;43.312;27.152;2023-04-12T12:37:49;99182.06;;;17.68;48.05
34658;BME280;20865;43.312;27.152;2023-04-12T12:40:17;99189.14;;;17.76;46.97
34658;BME280;20865;43.312;27.152;2023-04-12T12:42:49;99182.17;;;17.90;46.68
34658;BME280;20865;43.312;27.152;2023-04-12T12:45:17;99181.44;;;17.58;46.65
34658;BME280;20865;43.312;27.152;2023-04-12T12:47:45;99192.33;;;17.81;46.48
34658;BME280;20865;43.312;27.152;2023-04-12T12:50:13;99191.50;;;17.92;46.71
34658;BME280;20865;43.312;27.152;2023-04-12T12:52:42;99190.28;;;17.90;47.46
34658;BME280;20865;43.312;27.152;2023-04-12T12:55:09;99190.69;;;17.73;47.37
34658;BME280;20865;43.312;27.152;2023-04-12T12:57:36;99185.52;;;17.70;47.41
34658;BME280;20865;43.312;27.152;2023-04-12T13:00:04;99188.67;;;17.88;46.64
34658;BME280;20865;43.312;27.152;2023-04-12T13:02:31;99193.37;;;17.97;46.87
34658;BME280;20865;43.312;27.152;2023-04-12T13:04:58;99194.45;;;17.94;47.43
34658;BME280;20865;43.312;27.152;2023-04-12T13:07:27;99209.59;;;18.08;46.78
34658;BME280;20865;43.312;27.152;2023-04-12T13:09:53;99196.52;;;17.85;46.01
34658;BME280;20865;43.312;27.152;2023-04-12T13:12:20;99198.16;;;17.93;45.39
34658;BME280;20865;43.312;27.152;2023-04-12T13:14:47;99204.64;;;17.91;45.32